createdAt,value
2022-08-05T00:03:51.572Z,10.4
2022-08-05T00:14:12.049Z,11.3
2022-08-05T00:16:16.208Z,12.3
2022-08-05T00:22:57.489Z,11.2
2022-08-05T00:24:55.014Z,12.4
2022-08-05T00:26:55.441Z,11.2
2022-08-05T00:31:07.610Z,11.5
2022-08-05T00:33:15.621Z,12
2022-08-05T00:35:14.983Z,7
2022-08-05T00:37:19.172Z,6.8
2022-08-05T00:39:24.471Z,6.8
2022-08-05T00:41:27.384Z,6.9
2022-08-05T00:43:46.629Z,10.5
2022-08-05T00:45:43.861Z,6.7
2022-08-05T00:47:56.746Z,5.8
2022-08-05T00:49:51.703Z,8.8
2022-08-05T00:51:52.307Z,6.5
2022-08-05T00:54:02.312Z,4.4
2022-08-05T00:55:59.255Z,4.9
2022-08-05T00:58:06.403Z,6
2022-08-05T01:00:11.175Z,6.1
2022-08-05T01:02:14.630Z,5.4
2022-08-05T01:04:20.346Z,4.4
2022-08-05T01:06:32.693Z,5.4
2022-08-05T01:08:42.277Z,5.4
2022-08-05T01:10:31.137Z,5.2
2022-08-05T01:12:38.284Z,6.6
2022-08-05T01:14:42.399Z,4.3
2022-08-05T01:16:46.521Z,3.7
2022-08-05T01:17:53.811Z,4.9
2022-08-05T01:20:01.498Z,4.9
2022-08-05T01:21:58.360Z,5.5
2022-08-05T01:24:03.344Z,4.9
2022-08-05T01:30:18.858Z,6.5
2022-08-05T01:32:22.020Z,5.3
2022-08-05T01:34:26.773Z,4.8
2022-08-05T01:36:30.257Z,5.4
2022-08-05T01:38:34.374Z,6.3
2022-08-05T01:44:54.154Z,6.8
2022-08-05T01:46:53.881Z,5.9
2022-08-05T01:48:58.021Z,6.4
2022-08-05T01:53:06.242Z,5.8
2022-08-05T01:58:11.160Z,8.4
2022-08-05T02:03:33.921Z,8.4
2022-08-05T02:05:34.316Z,9.3
2022-08-05T02:07:38.131Z,12.4
2022-08-05T02:14:57.132Z,13.8
2022-08-05T02:23:16.635Z,13
2022-08-05T02:29:59.927Z,9.5
2022-08-05T02:31:34.874Z,9.2
2022-08-05T02:33:38.821Z,10.1
2022-08-05T02:35:49.899Z,12.6
2022-08-05T02:37:54.081Z,14.6
2022-08-05T02:39:52.723Z,14.8
2022-08-05T02:42:00.651Z,16.6
2022-08-05T02:44:02.711Z,15
2022-08-05T02:46:05.000Z,12.2
2022-08-05T02:48:12.530Z,11
2022-08-05T02:50:13.216Z,9
2022-08-05T02:52:29.371Z,7.6
2022-08-05T02:54:35.726Z,7.3
2022-08-05T02:56:28.594Z,5.6
2022-08-05T02:58:32.735Z,6.9
2022-08-05T03:00:36.845Z,6.2
2022-08-05T03:02:40.962Z,5.9
2022-08-05T03:04:45.162Z,5.2
2022-08-05T03:06:56.097Z,4.3
2022-08-05T03:08:56.378Z,4.5
2022-08-05T03:11:41.102Z,4.7
2022-08-05T03:18:17.334Z,3.9
2022-08-05T03:20:23.719Z,3.6
2022-08-05T03:22:32.202Z,4.5
2022-08-05T03:24:31.798Z,3.4
2022-08-05T03:26:35.913Z,4.1
2022-08-05T03:28:40.047Z,5.1
2022-08-05T03:30:44.160Z,4.4
2022-08-05T03:32:48.265Z,3.6
2022-08-05T03:34:55.423Z,5.6
2022-08-05T03:36:59.550Z,5.1
2022-08-05T03:39:03.723Z,4
2022-08-05T03:41:10.816Z,5
2022-08-05T03:45:22.498Z,4.1
2022-08-05T03:49:31.185Z,5.3
2022-08-05T03:52:48.554Z,5.6
2022-08-05T03:55:54.081Z,4.4
2022-08-05T03:56:01.143Z,4.5
2022-08-05T03:59:54.744Z,4.8
2022-08-05T04:01:52.299Z,2.5
2022-08-05T04:04:10.321Z,2.6
2022-08-05T04:08:29.978Z,2.1
2022-08-05T04:14:39.905Z,3
2022-08-05T04:16:47.074Z,3
2022-08-05T04:18:53.890Z,2.2
2022-08-05T04:20:55.315Z,2.6
2022-08-05T04:22:59.439Z,2
2022-08-05T04:25:03.571Z,3
2022-08-05T04:27:07.673Z,2.2
2022-08-05T04:29:11.827Z,2.8
2022-08-05T04:31:18.936Z,2.2
2022-08-05T04:33:36.384Z,2.4
2022-08-05T04:35:27.201Z,2.5
2022-08-05T04:38:01.010Z,2.3
2022-08-05T04:39:35.739Z,2.6
2022-08-05T04:41:39.536Z,1.9
2022-08-05T04:43:48.304Z,2.5
2022-08-05T04:45:55.688Z,2.6
2022-08-05T04:47:54.904Z,3
2022-08-05T04:50:02.508Z,1.8
2022-08-05T04:52:03.157Z,2.8
2022-08-05T04:54:07.263Z,1.7
2022-08-05T04:56:33.029Z,1.7
2022-08-05T04:58:15.508Z,1.6
2022-08-05T05:05:34.431Z,1.5
2022-08-05T05:11:54.120Z,1.5
2022-08-05T05:13:55.282Z,1.5
2022-08-05T05:16:02.210Z,1.9
2022-08-05T05:20:06.267Z,1.3
2022-08-05T05:22:24.669Z,1.6
2022-08-05T05:24:14.489Z,2.3
2022-08-05T05:26:18.640Z,1.6
2022-08-05T05:28:25.723Z,2.5
2022-08-05T05:30:33.524Z,2.7
2022-08-05T05:32:33.959Z,2
2022-08-05T05:34:38.070Z,2.1
2022-08-05T05:36:42.194Z,2.1
2022-08-05T05:38:46.308Z,1.6
2022-08-05T05:40:51.598Z,2
2022-08-05T05:45:03.103Z,2.2
2022-08-05T05:47:21.742Z,2.2
2022-08-05T05:49:22.309Z,1.9
2022-08-05T05:51:15.604Z,1.8
2022-08-05T05:53:21.153Z,2.2
2022-08-05T05:55:22.237Z,2.1
2022-08-05T05:57:42.733Z,1.7
2022-08-05T05:59:33.496Z,1.6
2022-08-05T06:01:39.412Z,1.6
2022-08-05T06:11:02.261Z,2.3
2022-08-05T06:13:06.359Z,2.3
2022-08-05T06:15:16.478Z,2.2
2022-08-05T06:17:21.697Z,1.9
2022-08-05T06:19:26.040Z,1.5
2022-08-05T06:21:22.835Z,2.1
2022-08-05T06:23:26.939Z,2.2
2022-08-05T06:26:13.405Z,2.6
2022-08-05T06:29:49.436Z,1.8
2022-08-05T06:31:46.513Z,1
2022-08-05T06:36:07.959Z,1.8
2022-08-05T06:40:05.952Z,1.2
2022-08-05T06:42:10.063Z,1.9
2022-08-05T06:44:14.174Z,1.5
2022-08-05T06:46:18.290Z,1.7
2022-08-05T06:48:52.558Z,1.5
2022-08-05T06:50:26.629Z,2.7
2022-08-05T06:52:36.672Z,1.8
2022-08-05T06:54:37.762Z,1.2
2022-08-05T06:58:46.768Z,1.4
2022-08-05T06:59:57.950Z,1.8
2022-08-05T07:01:53.723Z,1.7
2022-08-05T07:03:57.819Z,1.1
2022-08-05T07:06:05.381Z,1.1
2022-08-05T07:10:14.929Z,1.3
2022-08-05T07:12:17.329Z,1.4
2022-08-05T07:18:02.276Z,1.2
2022-08-05T07:20:37.096Z,1.2
2022-08-05T07:24:53.705Z,1.6
2022-08-05T07:37:12.819Z,0.7
2022-08-05T07:39:24.622Z,0.8
2022-08-05T07:43:25.179Z,0.7
2022-08-05T07:47:41.940Z,0.9
2022-08-05T07:51:52.943Z,0.5
2022-08-05T07:53:50.593Z,1
2022-08-05T07:56:05.202Z,0.8
2022-08-05T07:58:54.413Z,1
2022-08-05T08:02:26.501Z,0.9
2022-08-05T08:04:37.970Z,0.5
2022-08-05T08:10:48.846Z,0.5
2022-08-05T08:19:04.823Z,0.6
2022-08-05T08:21:09.849Z,0.2
2022-08-05T08:24:02.726Z,0.6
2022-08-05T08:27:21.996Z,0.5
2022-08-05T08:30:03.475Z,0.3
2022-08-05T08:31:29.529Z,0.3
2022-08-05T08:33:38.027Z,0.5
2022-08-05T08:35:52.785Z,0.3
2022-08-05T08:41:59.894Z,0.3
2022-08-05T08:45:20.314Z,0.2
2022-08-05T08:46:01.322Z,0.2
2022-08-05T08:48:13.069Z,0.2
2022-08-05T08:50:33.107Z,0.2
2022-08-05T08:52:16.689Z,0.2
2022-08-05T08:53:20.264Z,0.3
2022-08-05T08:55:32.082Z,0.4
2022-08-05T08:57:29.302Z,0.5
2022-08-05T08:59:33.643Z,0.2
2022-08-05T09:01:42.577Z,0.3
2022-08-05T09:03:45.159Z,0.2
2022-08-05T09:06:08.543Z,0.3
2022-08-05T09:09:56.444Z,0.4
2022-08-05T09:12:08.899Z,0.3
2022-08-05T09:14:54.368Z,0.2
2022-08-05T09:18:15.899Z,0.2
2022-08-05T09:24:28.244Z,0.1
2022-08-05T09:26:32.481Z,0.2
2022-08-05T09:28:36.466Z,1
2022-08-05T09:30:43.593Z,0.2
2022-08-05T09:32:47.697Z,0.4
2022-08-05T09:34:51.810Z,0.1
2022-08-05T09:36:59.140Z,0.1
2022-08-05T09:39:00.122Z,0.2
2022-08-05T09:41:04.148Z,0.1
2022-08-05T09:47:20.594Z,0.1
2022-08-05T09:49:23.606Z,0.1
2022-08-05T09:50:38.184Z,0.2
2022-08-05T09:52:31.316Z,0.2
2022-08-05T09:54:35.399Z,0.1
2022-08-05T09:58:47.451Z,0.3
2022-08-05T10:02:54.925Z,0.2
2022-08-05T10:07:19.681Z,0.1
2022-08-05T10:09:07.115Z,0.1
2022-08-05T10:11:11.225Z,0
2022-08-05T10:13:18.402Z,0.2
2022-08-05T10:15:22.428Z,0.2
2022-08-05T10:17:37.408Z,0.1
2022-08-05T10:19:31.892Z,0.3
2022-08-05T10:21:35.328Z,0.1
2022-08-05T10:23:58.995Z,0.2
2022-08-05T10:25:42.887Z,0.2
2022-08-05T10:30:06.519Z,0.1
2022-08-05T10:32:54.349Z,0
2022-08-05T10:34:02.303Z,0.1
2022-08-05T10:36:06.383Z,0.4
2022-08-05T10:40:18.246Z,0.2
2022-08-05T10:42:32.298Z,0
2022-08-05T10:44:25.814Z,0
2022-08-05T10:47:33.446Z,0.2
2022-08-05T10:49:48.796Z,0
2022-08-05T10:51:57.644Z,0
2022-08-05T10:53:45.789Z,0.1
2022-08-05T10:56:05.168Z,0.2
2022-08-05T10:57:56.965Z,0
2022-08-05T11:00:08.044Z,0.1
2022-08-05T11:02:05.590Z,0.1
2022-08-05T11:04:09.261Z,0.2
2022-08-05T11:06:15.866Z,0.1
2022-08-05T11:08:34.279Z,0.2
2022-08-05T11:14:57.667Z,0.1
2022-08-05T11:25:26.707Z,0.1
2022-08-05T11:27:00.356Z,0.2
2022-08-05T11:31:08.500Z,0.1
2022-08-05T11:33:13.736Z,0.2
2022-08-05T11:39:27.904Z,0.2
2022-08-05T11:44:06.535Z,0.2
2022-08-05T11:46:29.889Z,0.1
2022-08-05T11:48:04.824Z,0
2022-08-05T11:50:08.871Z,0.2
2022-08-05T11:52:16.005Z,0.1
2022-08-05T11:54:20.162Z,0.1
2022-08-05T11:56:33.410Z,0.6
2022-08-05T11:58:28.309Z,0.2
2022-08-05T12:00:38.331Z,0.5
2022-08-05T12:02:40.182Z,0.1
2022-08-05T12:08:53.279Z,0.3
2022-08-05T12:10:57.347Z,0.1
2022-08-05T12:13:01.451Z,0.2
2022-08-05T12:15:05.543Z,0.1
2022-08-05T12:20:27.271Z,0
2022-08-05T12:23:24.941Z,0.2
2022-08-05T12:27:33.430Z,0.1
2022-08-05T12:35:52.583Z,0.1
2022-08-05T12:37:56.579Z,0.1
2022-08-05T12:40:03.389Z,0
2022-08-05T12:41:04.256Z,0.1
2022-08-05T12:43:08.354Z,0.1
2022-08-05T12:45:12.449Z,0
2022-08-05T12:47:17.116Z,0
2022-08-05T12:49:25.643Z,0
2022-08-05T12:52:12.686Z,0
2022-08-05T12:53:37.177Z,0.2
2022-08-05T12:55:35.962Z,0.2
2022-08-05T12:58:38.734Z,0.1
2022-08-05T13:02:03.862Z,0.3
2022-08-05T13:03:55.355Z,0.2
2022-08-05T13:05:59.459Z,0
2022-08-05T13:08:03.983Z,0
2022-08-05T13:14:15.863Z,0.2
2022-08-05T13:16:20.069Z,0.1
2022-08-05T13:18:27.103Z,0.1
2022-08-05T13:20:32.111Z,0.2
2022-08-05T13:22:35.313Z,0.2
2022-08-05T13:24:51.143Z,0.1
2022-08-05T13:26:43.524Z,0.1
2022-08-05T13:28:47.619Z,0.1
2022-08-05T13:30:53.436Z,0
2022-08-05T13:33:00.879Z,0.1
2022-08-05T13:35:02.968Z,0.1
2022-08-05T13:37:07.138Z,0.1
2022-08-05T13:38:20.545Z,0.2
2022-08-05T13:40:24.547Z,0.2
2022-08-05T13:42:18.897Z,0.1
2022-08-05T13:44:22.938Z,0.2
2022-08-05T13:46:43.943Z,0.2
2022-08-05T13:52:42.421Z,0.2
2022-08-05T13:54:53.248Z,0.1
2022-08-05T13:56:51.856Z,0.1
2022-08-05T13:58:54.705Z,0.8
2022-08-05T14:01:01.856Z,0.1
2022-08-05T14:03:05.993Z,0
2022-08-05T14:05:11.499Z,0.1
2022-08-05T14:07:55.437Z,0.1
2022-08-05T14:09:18.215Z,0.5
2022-08-05T14:11:22.327Z,0.1
2022-08-05T14:13:26.498Z,0.3
2022-08-05T14:16:09.044Z,0.3
2022-08-05T14:17:37.671Z,0.4
2022-08-05T14:19:54.260Z,0.2
2022-08-05T14:22:09.021Z,0.1
2022-08-05T14:23:49.994Z,0.2
2022-08-05T14:25:54.452Z,0
2022-08-05T14:27:58.591Z,0.1
2022-08-05T14:30:05.329Z,0.1
2022-08-05T14:34:13.544Z,0.2
2022-08-05T14:35:20.831Z,0.1
2022-08-05T14:37:21.157Z,0.1
2022-08-05T14:39:25.315Z,0.1
2022-08-05T14:45:40.622Z,0.1
2022-08-05T14:48:04.066Z,0.1
2022-08-05T14:49:56.245Z,0.3
2022-08-05T14:51:52.921Z,0.2
2022-08-05T14:54:26.564Z,0.3
2022-08-05T14:56:01.163Z,0
2022-08-05T14:58:11.112Z,0
2022-08-05T15:00:12.409Z,0.1
2022-08-05T15:02:16.622Z,0.1
2022-08-05T15:06:28.076Z,0.1
2022-08-05T15:18:52.511Z,0.1
2022-08-05T15:20:56.543Z,0
2022-08-05T15:25:11.477Z,0
2022-08-05T15:27:11.862Z,0.1
2022-08-05T15:29:15.960Z,0.1
2022-08-05T15:34:05.015Z,0.1
2022-08-05T15:35:45.399Z,0.3
2022-08-05T15:38:32.760Z,0.3
2022-08-05T15:40:58.831Z,0.1
2022-08-05T15:41:59.315Z,0.2
2022-08-05T15:46:06.570Z,0.2
2022-08-05T15:48:10.675Z,0.3
2022-08-05T15:50:15.281Z,0.1
2022-08-05T15:58:36.851Z,0.3
2022-08-05T16:01:03.476Z,0.5
2022-08-05T16:02:42.466Z,0.6
2022-08-05T16:08:58.009Z,0.2
2022-08-05T16:11:01.949Z,0.3
2022-08-05T16:13:05.889Z,0.1
2022-08-05T16:15:09.965Z,0.4
2022-08-05T16:17:14.076Z,0.5
2022-08-05T16:19:25.359Z,0.3
2022-08-05T16:21:58.396Z,0.4
2022-08-05T16:23:53.369Z,0.3
2022-08-05T16:25:34.026Z,0.2
2022-08-05T16:27:47.206Z,0.2
2022-08-05T16:28:41.332Z,0.2
2022-08-05T16:30:45.235Z,0.1
2022-08-05T16:32:49.307Z,0.5
2022-08-05T16:34:53.405Z,0.3
2022-08-05T16:37:00.532Z,0
2022-08-05T16:39:04.717Z,0.2
2022-08-05T16:42:12.316Z,0.1
2022-08-05T16:43:12.864Z,0.2
2022-08-05T16:46:05.422Z,0.2
2022-08-05T16:47:28.545Z,0.1
2022-08-05T16:49:25.169Z,0.2
2022-08-05T16:51:42.568Z,0
2022-08-05T16:54:04.180Z,0.2
2022-08-05T16:55:47.030Z,0.2
2022-08-05T16:58:00.088Z,0.1
2022-08-05T17:00:00.302Z,0.3
2022-08-05T17:01:55.906Z,0.3
2022-08-05T17:03:56.859Z,0.4
2022-08-05T17:08:08.076Z,0.3
2022-08-05T17:10:12.601Z,0.3
2022-08-05T17:12:16.330Z,0.1
2022-08-05T17:14:34.450Z,0.2
2022-08-05T17:16:33.129Z,0.1
2022-08-05T17:18:28.478Z,0.1
2022-08-05T17:20:35.607Z,0.1
2022-08-05T17:22:39.659Z,0.1
2022-08-05T17:24:45.357Z,0.2
2022-08-05T17:25:47.267Z,0.1
2022-08-05T17:27:51.360Z,0.1
2022-08-05T17:29:59.653Z,0.1
2022-08-05T17:31:59.524Z,0.1
2022-08-05T17:34:06.548Z,0.1
2022-08-05T17:36:32.816Z,0.1
2022-08-05T17:38:14.674Z,0.2
2022-08-05T17:42:25.741Z,0.1
2022-08-05T17:44:32.513Z,0.2
2022-08-05T17:46:30.897Z,0.2
2022-08-05T17:50:42.065Z,0.2
2022-08-05T17:52:53.201Z,0.3
2022-08-05T17:54:50.183Z,0.1
2022-08-05T17:56:54.263Z,0.2
2022-08-05T17:58:59.896Z,0.1
2022-08-05T18:01:03.917Z,0.2
2022-08-05T18:03:11.027Z,0.5
2022-08-05T18:07:19.182Z,0.3
2022-08-05T18:13:36.728Z,0.2
2022-08-05T18:15:36.191Z,0.2
2022-08-05T18:18:00.440Z,0.3
2022-08-05T18:19:51.325Z,0.2
2022-08-05T18:22:09.592Z,0.3
2022-08-05T18:22:57.211Z,0.2
2022-08-05T18:24:58.431Z,0.3
2022-08-05T18:29:06.700Z,0.2
2022-08-05T18:31:13.797Z,0.4
2022-08-05T18:33:17.931Z,0.2
2022-08-05T18:40:31.571Z,0.3
2022-08-05T18:43:43.083Z,0.2
2022-08-05T18:45:45.763Z,0.2
2022-08-05T18:49:57.858Z,0.3
2022-08-05T18:52:05.204Z,0.3
2022-08-05T18:54:02.356Z,0.4
2022-08-05T18:56:07.902Z,0.5
2022-08-05T18:58:16.352Z,0.4
2022-08-05T19:00:20.297Z,0.3
2022-08-05T19:02:26.622Z,0.2
2022-08-05T19:04:26.087Z,0.2
2022-08-05T19:06:37.139Z,0.4
2022-08-05T19:08:34.349Z,0.3
2022-08-05T19:10:38.482Z,0.2
2022-08-05T19:12:43.279Z,0.1
2022-08-05T19:14:59.766Z,0.4
2022-08-05T19:16:53.934Z,0.4
2022-08-05T19:18:58.081Z,0.4
2022-08-05T19:21:22.642Z,0.8
2022-08-05T19:24:07.615Z,0.2
2022-08-05T19:25:33.398Z,0.4
2022-08-05T19:27:38.087Z,0.3
2022-08-05T19:29:42.212Z,0.4
2022-08-05T19:31:51.365Z,0.2
2022-08-05T19:33:56.696Z,0.3
2022-08-05T19:35:56.474Z,0.3
2022-08-05T19:38:06.812Z,0.2
2022-08-05T19:40:03.172Z,0.1
2022-08-05T19:42:10.077Z,0.3
2022-08-05T19:44:14.390Z,0.5
2022-08-05T19:46:29.664Z,0.2
2022-08-05T19:48:22.469Z,0.3
2022-08-05T19:50:26.603Z,0.5
2022-08-05T19:52:32.595Z,0.3
2022-08-05T19:54:34.977Z,0.5
2022-08-05T19:56:42.030Z,0.1
2022-08-05T19:58:53.844Z,0.3
2022-08-05T20:00:50.339Z,0.6
2022-08-05T20:02:54.447Z,0.5
2022-08-05T20:04:59.478Z,0.5
2022-08-05T20:07:02.729Z,0.3
2022-08-05T20:09:14.003Z,0.5
2022-08-05T20:11:14.000Z,0.4
2022-08-05T20:13:18.134Z,0.4
2022-08-05T20:15:23.220Z,0.6
2022-08-05T20:18:33.133Z,0.6
2022-08-05T20:20:34.096Z,0.4
2022-08-05T20:22:38.348Z,0.2
2022-08-05T20:24:45.424Z,0.5
2022-08-05T20:26:49.530Z,0.6
2022-08-05T20:28:53.659Z,0.4
2022-08-05T20:30:57.777Z,0.6
2022-08-05T20:33:01.996Z,0.5
2022-08-05T20:35:06.089Z,0.6
2022-08-05T20:41:24.111Z,0.4
2022-08-05T20:43:57.447Z,0.4
2022-08-05T20:45:56.467Z,0.5
2022-08-05T20:47:33.838Z,0.5
2022-08-05T20:49:39.983Z,0.4
2022-08-05T20:51:42.109Z,0.3
2022-08-05T20:57:57.497Z,0.5
2022-08-05T21:00:19.756Z,0.6
2022-08-05T21:02:05.806Z,0.6
2022-08-05T21:04:10.531Z,0.6
2022-08-05T21:06:27.894Z,0.3
2022-08-05T21:08:21.149Z,0.4
2022-08-05T21:12:29.389Z,0.5
2022-08-05T21:17:41.221Z,0.6
2022-08-05T21:21:52.502Z,0.3
2022-08-05T21:23:56.608Z,0.4
2022-08-05T21:28:04.849Z,0.8
2022-08-05T21:30:08.977Z,0.3
2022-08-05T21:32:18.405Z,0.4
2022-08-05T21:34:17.188Z,0.4
2022-08-05T21:36:29.796Z,0.2
2022-08-05T21:38:28.474Z,0.5
2022-08-05T21:40:32.568Z,0.7
2022-08-05T21:42:44.131Z,0.5
2022-08-05T21:46:44.971Z,0.6
2022-08-05T21:55:06.284Z,0.4
2022-08-05T21:59:24.367Z,0.3
2022-08-05T22:03:49.016Z,0.4
2022-08-05T22:07:40.262Z,0.8
2022-08-05T22:09:45.734Z,0.3
2022-08-05T22:14:48.703Z,0.6
2022-08-05T22:16:56.877Z,0.5
2022-08-05T22:18:59.943Z,0.5
2022-08-05T22:21:04.934Z,1
2022-08-05T22:25:18.250Z,0.4
2022-08-05T22:27:16.598Z,0.4
2022-08-05T22:29:26.610Z,0.5
2022-08-05T22:31:24.584Z,0.4
2022-08-05T22:33:56.753Z,0.5
2022-08-05T22:35:47.908Z,0.8
2022-08-05T22:39:44.090Z,0.5
2022-08-05T22:42:09.250Z,0.3
2022-08-05T22:43:52.247Z,0.6
2022-08-05T22:45:56.365Z,1.1
2022-08-05T22:52:22.909Z,0.9
2022-08-05T22:58:28.328Z,0.3
2022-08-05T23:02:35.913Z,0.6
2022-08-05T23:04:39.384Z,0.7
2022-08-05T23:06:43.478Z,0.7
2022-08-05T23:09:26.852Z,0.4
2022-08-05T23:11:05.886Z,0.6
2022-08-05T23:15:17.181Z,0.7
2022-08-05T23:17:24.175Z,0.4
2022-08-05T23:27:42.523Z,0.7
2022-08-05T23:31:53.000Z,0.7
2022-08-05T23:36:01.228Z,1.5
2022-08-05T23:38:05.342Z,0.6
2022-08-05T23:42:13.550Z,0.7
2022-08-05T23:46:24.774Z,1.1
2022-08-05T23:48:28.916Z,0.4
2022-08-05T23:50:33.000Z,1.2
2022-08-05T23:52:49.657Z,0.7
2022-08-05T23:54:41.213Z,0.6
2022-08-05T23:56:46.881Z,0.3
2022-08-05T23:58:53.944Z,0.3
